KGRR/GRR METAR and TAF weather

Enter ICAO airport designator
Station Type Date Time Source
KGRR METAR 2022/01/18 07:53 UTC NOAA

KGRR 180753Z AUTO 23008KT 10SM BKN027 OVC031 M02/M06 A2989 RMK AO2 SLP130 T10221056 $


Station Type Date Time Source
KGRR Decoded METAR 2022/01/18 07:53 UTC NOAA

GERALD R. FORD INTERNATIONAL, MI, United States (KGRR) 42-53N 085-31W 239M
Jan 18, 2022 - 02:53 AM EST / 2022.01.18 0753 UTC
Wind: from the SW (230 degrees) at 9 MPH (8 KT):0
Visibility: 10 mile(s):0
Sky conditions: overcast
Temperature: 28.0 F (-2.2 C)
Windchill: 19 F (-7 C):1
Dew Point: 21.9 F (-5.6 C)
Relative Humidity: 77%
Pressure (altimeter): 29.89 in. Hg (1012 hPa)
ob: KGRR 180753Z AUTO 23008KT 10SM BKN027 OVC031 M02/M06 A2989 RMK AO2 SLP130 T10221056
cycle: 8

Station Type Date Time Source
KGRR TAF 2022/01/18 06:42 UTC NOAA

TAF KGRR 180540Z 1806/1906 25007KT P6SM BKN035
FM181000 21006KT 6SM BR BKN019
FM181600 18011G20KT P6SM SCT060
FM190000 20015G25KT P6SM SCT025 WS020/22055KT
FM190300 24015G30KT P6SM BKN019

Example: see airport list